createdAt,value
2023-05-14T00:02:06.053Z,47.37
2023-05-14T00:04:32.982Z,47.00
2023-05-14T00:06:59.842Z,46.88
2023-05-14T00:09:27.005Z,46.93
2023-05-14T00:11:53.774Z,46.96
2023-05-14T00:14:20.511Z,46.91
2023-05-14T00:16:47.235Z,47.10
2023-05-14T00:19:14.555Z,47.12
2023-05-14T00:21:41.509Z,46.61
2023-05-14T00:24:08.334Z,46.99
2023-05-14T00:26:35.086Z,47.15
2023-05-14T00:29:02.471Z,47.23
2023-05-14T00:31:29.212Z,46.81
2023-05-14T00:33:56.095Z,46.89
2023-05-14T00:36:22.817Z,46.95
2023-05-14T00:38:49.951Z,46.67
2023-05-14T00:41:16.655Z,46.77
2023-05-14T00:43:43.389Z,46.66
2023-05-14T00:46:10.171Z,47.21
2023-05-14T00:48:36.889Z,47.01
2023-05-14T00:51:03.834Z,46.57
2023-05-14T00:53:30.841Z,46.94
2023-05-14T00:55:58.612Z,46.72
2023-05-14T00:58:25.941Z,46.71
2023-05-14T01:00:52.759Z,46.99
2023-05-14T01:03:19.611Z,46.87
2023-05-14T01:06:26.251Z,46.67
2023-05-14T01:09:01.951Z,47.05
2023-05-14T01:11:46.214Z,47.19
2023-05-14T01:14:47.624Z,47.00
2023-05-14T01:17:16.455Z,47.20
2023-05-14T01:19:45.063Z,46.70
2023-05-14T01:22:12.142Z,46.96
2023-05-14T01:24:39.734Z,47.13
2023-05-14T01:27:27.956Z,46.84
2023-05-14T01:30:15.377Z,46.45
2023-05-14T01:32:45.336Z,47.15
2023-05-14T01:35:13.177Z,47.18
2023-05-14T01:37:42.021Z,46.92
2023-05-14T01:40:11.620Z,46.57
2023-05-14T01:42:38.719Z,46.56
2023-05-14T01:45:06.215Z,46.96
2023-05-14T01:47:32.966Z,46.66
2023-05-14T01:49:59.710Z,46.77
2023-05-14T01:52:26.429Z,47.15
2023-05-14T01:54:53.180Z,46.81
2023-05-14T01:57:19.915Z,46.86
2023-05-14T01:59:46.634Z,46.80
2023-05-14T02:02:13.371Z,46.99
2023-05-14T02:04:40.178Z,46.86
2023-05-14T02:07:06.951Z,46.83
2023-05-14T02:09:33.851Z,46.88
2023-05-14T02:12:01.008Z,46.69
2023-05-14T02:14:27.976Z,47.26
2023-05-14T02:16:54.712Z,46.89
2023-05-14T02:19:21.434Z,47.14
2023-05-14T02:21:48.542Z,47.12
2023-05-14T02:24:15.395Z,46.91
2023-05-14T02:26:42.583Z,47.10
2023-05-14T02:29:09.376Z,46.62
2023-05-14T02:31:36.321Z,46.83
2023-05-14T02:34:04.148Z,46.56
2023-05-14T02:36:30.984Z,46.43
2023-05-14T02:39:00.036Z,46.99
2023-05-14T02:41:27.595Z,46.76
2023-05-14T02:43:54.962Z,46.82
2023-05-14T02:46:22.044Z,46.49
2023-05-14T02:48:48.973Z,46.37
2023-05-14T02:51:16.684Z,46.52
2023-05-14T02:53:43.444Z,46.54
2023-05-14T02:56:10.325Z,46.89
2023-05-14T02:58:37.082Z,47.09
2023-05-14T03:01:03.993Z,47.08
2023-05-14T03:03:31.607Z,46.78
2023-05-14T03:05:58.852Z,46.84
2023-05-14T03:08:25.956Z,46.40
2023-05-14T03:10:52.739Z,46.51
2023-05-14T03:13:20.912Z,46.82
2023-05-14T03:15:47.757Z,46.53
2023-05-14T03:18:15.330Z,46.69
2023-05-14T03:20:42.403Z,46.27
2023-05-14T03:23:09.145Z,46.84
2023-05-14T03:25:35.858Z,47.12
2023-05-14T03:28:03.744Z,46.47
2023-05-14T03:30:30.725Z,46.88
2023-05-14T03:32:57.826Z,46.39
2023-05-14T03:35:24.698Z,46.57
2023-05-14T03:37:53.151Z,46.61
2023-05-14T03:40:19.984Z,46.40
2023-05-14T03:42:46.777Z,47.05
2023-05-14T03:45:13.461Z,46.59
2023-05-14T03:47:40.264Z,46.83
2023-05-14T03:50:08.198Z,47.07
2023-05-14T03:52:34.942Z,47.13
2023-05-14T03:55:01.759Z,47.21
2023-05-14T03:57:29.236Z,46.47
2023-05-14T03:59:55.984Z,46.70
2023-05-14T04:02:22.740Z,46.78
2023-05-14T04:04:49.604Z,47.06
2023-05-14T04:07:16.385Z,46.70
2023-05-14T04:09:43.105Z,46.88
2023-05-14T04:12:10.013Z,46.55
2023-05-14T04:14:36.723Z,46.96
2023-05-14T04:17:03.934Z,46.44
2023-05-14T04:19:30.652Z,46.58
2023-05-14T04:21:57.404Z,46.61
2023-05-14T04:24:24.184Z,46.64
2023-05-14T04:26:50.866Z,46.73
2023-05-14T04:29:17.803Z,46.41
2023-05-14T04:31:44.833Z,46.38
2023-05-14T04:34:11.632Z,46.66
2023-05-14T04:36:38.426Z,46.94
2023-05-14T04:39:06.215Z,46.44
2023-05-14T04:41:33.093Z,46.57
2023-05-14T04:44:02.059Z,46.64
2023-05-14T04:46:28.995Z,46.16
2023-05-14T04:48:56.752Z,46.59
2023-05-14T04:51:24.144Z,46.64
2023-05-14T04:53:50.820Z,46.63
2023-05-14T04:56:17.662Z,46.79
2023-05-14T04:58:44.395Z,46.37
2023-05-14T05:01:11.558Z,46.75
2023-05-14T05:03:38.421Z,46.11
2023-05-14T05:06:05.306Z,46.40
2023-05-14T05:08:32.049Z,46.36
2023-05-14T05:10:58.725Z,46.10
2023-05-14T05:13:25.458Z,46.58
2023-05-14T05:15:52.204Z,46.06
2023-05-14T05:18:18.902Z,46.29
2023-05-14T05:20:45.605Z,46.57
2023-05-14T05:23:12.319Z,46.34
2023-05-14T05:25:39.079Z,46.64
2023-05-14T05:28:05.815Z,45.88
2023-05-14T05:30:32.547Z,46.27
2023-05-14T05:32:59.350Z,46.27
2023-05-14T05:35:26.138Z,46.68
2023-05-14T05:37:52.942Z,45.95
2023-05-14T05:40:19.728Z,46.52
2023-05-14T05:42:46.430Z,45.98
2023-05-14T05:45:13.193Z,45.89
2023-05-14T05:47:40.152Z,46.58
2023-05-14T05:50:07.771Z,46.46
2023-05-14T05:52:34.542Z,46.51
2023-05-14T05:55:01.284Z,46.41
2023-05-14T05:57:28.337Z,46.44
2023-05-14T05:59:55.077Z,46.42
2023-05-14T06:02:22.063Z,45.85
2023-05-14T06:04:48.990Z,46.10
2023-05-14T06:07:15.838Z,45.91
2023-05-14T06:09:42.636Z,46.18
2023-05-14T06:12:09.529Z,46.18
2023-05-14T06:14:36.851Z,45.69
2023-05-14T06:17:03.698Z,46.00
2023-05-14T06:19:30.718Z,46.05
2023-05-14T06:21:57.540Z,45.98
2023-05-14T06:24:24.262Z,45.73
2023-05-14T06:26:51.047Z,46.21
2023-05-14T06:29:17.788Z,46.32
2023-05-14T06:31:44.543Z,45.78
2023-05-14T06:34:11.563Z,46.04
2023-05-14T06:36:38.279Z,45.79
2023-05-14T06:39:05.111Z,45.64
2023-05-14T06:41:32.035Z,45.92
2023-05-14T06:43:58.760Z,45.85
2023-05-14T06:46:25.524Z,45.70
2023-05-14T06:48:52.294Z,45.81
2023-05-14T06:51:19.041Z,45.82
2023-05-14T06:53:46.997Z,45.83
2023-05-14T06:56:14.903Z,45.70
2023-05-14T06:58:41.643Z,45.81
2023-05-14T07:01:08.540Z,46.17
2023-05-14T07:03:35.269Z,45.38
2023-05-14T07:06:01.967Z,45.54
2023-05-14T07:08:28.850Z,45.98
2023-05-14T07:10:56.385Z,45.37
2023-05-14T07:13:25.270Z,45.35
2023-05-14T07:15:55.758Z,45.39
2023-05-14T07:18:24.341Z,45.10
2023-05-14T07:20:51.100Z,45.39
2023-05-14T07:23:19.745Z,45.28
2023-05-14T07:25:46.820Z,45.68
2023-05-14T07:28:13.635Z,46.03
2023-05-14T07:30:40.444Z,45.88
2023-05-14T07:33:07.351Z,45.48
2023-05-14T07:35:34.284Z,45.78
2023-05-14T07:38:01.100Z,45.32
2023-05-14T07:40:30.476Z,45.78
2023-05-14T07:42:57.251Z,45.42
2023-05-14T07:45:24.070Z,45.89
2023-05-14T07:47:52.378Z,45.79
2023-05-14T07:50:19.759Z,45.10
2023-05-14T07:52:46.531Z,45.66
2023-05-14T07:55:13.887Z,45.84
2023-05-14T07:57:40.916Z,45.54
2023-05-14T08:00:08.496Z,45.49
2023-05-14T08:02:35.291Z,45.70
2023-05-14T08:05:02.141Z,45.40
2023-05-14T08:07:30.266Z,45.89
2023-05-14T08:09:57.101Z,45.77
2023-05-14T08:12:23.892Z,45.13
2023-05-14T08:14:50.629Z,45.63
2023-05-14T08:17:17.557Z,44.99
2023-05-14T08:19:44.592Z,45.76
2023-05-14T08:22:11.394Z,45.40
2023-05-14T08:24:38.076Z,45.64
2023-05-14T08:27:05.120Z,45.06
2023-05-14T08:29:31.896Z,45.78
2023-05-14T08:32:00.337Z,44.91
2023-05-14T08:34:30.536Z,44.90
2023-05-14T08:36:57.236Z,45.22
2023-05-14T08:39:23.937Z,44.74
2023-05-14T08:41:51.846Z,45.26
2023-05-14T08:44:20.261Z,45.05
2023-05-14T08:46:49.962Z,45.98
2023-05-14T08:49:43.254Z,45.02
2023-05-14T08:52:10.908Z,45.57
2023-05-14T08:54:38.241Z,45.55
2023-05-14T08:57:05.680Z,45.11
2023-05-14T08:59:32.561Z,45.53
2023-05-14T09:02:02.830Z,45.28
2023-05-14T09:04:31.316Z,45.39
2023-05-14T09:07:01.702Z,45.10
2023-05-14T09:09:29.031Z,45.48
2023-05-14T09:11:55.853Z,45.37
2023-05-14T09:14:22.846Z,44.95
2023-05-14T09:16:51.816Z,44.86
2023-05-14T09:19:19.717Z,45.40
2023-05-14T09:21:48.025Z,45.65
2023-05-14T09:24:26.621Z,45.58
2023-05-14T09:26:54.917Z,44.92
2023-05-14T09:29:21.951Z,45.23
2023-05-14T09:31:51.397Z,44.81
2023-05-14T09:34:32.402Z,45.00
2023-05-14T09:36:59.689Z,44.95
2023-05-14T09:39:27.178Z,45.24
2023-05-14T09:41:54.983Z,44.45
2023-05-14T09:44:24.076Z,44.47
2023-05-14T09:46:51.493Z,45.20
2023-05-14T09:49:18.790Z,45.11
2023-05-14T09:51:45.610Z,44.69
2023-05-14T09:54:12.403Z,44.93
2023-05-14T09:56:39.925Z,44.89
2023-05-14T09:59:06.824Z,44.92
2023-05-14T10:01:34.521Z,45.19
2023-05-14T10:04:04.403Z,44.55
2023-05-14T10:06:36.522Z,44.88
2023-05-14T10:09:05.004Z,45.00
2023-05-14T10:11:37.505Z,44.66
2023-05-14T10:14:12.636Z,44.74
2023-05-14T10:16:44.289Z,44.99
2023-05-14T10:19:12.944Z,45.17
2023-05-14T10:21:42.586Z,44.76
2023-05-14T10:24:10.205Z,45.07
2023-05-14T10:26:39.638Z,45.40
2023-05-14T10:29:07.284Z,44.65
2023-05-14T10:31:47.831Z,45.25
2023-05-14T10:34:44.453Z,44.99
2023-05-14T10:37:22.285Z,45.17
2023-05-14T10:39:59.788Z,44.58
2023-05-14T10:42:36.102Z,44.69
2023-05-14T10:45:08.514Z,45.06
2023-05-14T10:47:40.257Z,44.76
2023-05-14T10:50:09.187Z,44.90
2023-05-14T10:52:36.588Z,44.72
2023-05-14T10:55:08.439Z,44.67
2023-05-14T10:57:38.236Z,44.95
2023-05-14T11:00:10.904Z,44.82
2023-05-14T11:02:39.872Z,44.80
2023-05-14T11:05:09.423Z,44.90
2023-05-14T11:07:41.884Z,44.92
2023-05-14T11:10:12.842Z,45.06
2023-05-14T11:12:45.074Z,44.98
2023-05-14T11:15:14.494Z,44.96
2023-05-14T11:17:43.469Z,44.39
2023-05-14T11:20:11.617Z,44.34
2023-05-14T11:22:40.213Z,44.09
2023-05-14T11:25:09.324Z,44.87
2023-05-14T11:27:38.789Z,44.45
2023-05-14T11:30:12.403Z,44.00
2023-05-14T11:32:39.593Z,44.22
2023-05-14T11:35:06.838Z,44.13
2023-05-14T11:37:33.562Z,44.44
2023-05-14T11:40:01.826Z,44.21
2023-05-14T11:42:28.678Z,44.10
2023-05-14T11:44:55.409Z,44.17
2023-05-14T11:47:23.004Z,44.49
2023-05-14T11:49:49.911Z,44.63
2023-05-14T11:52:19.738Z,44.42
2023-05-14T11:54:46.813Z,44.37
2023-05-14T11:57:16.500Z,44.27
2023-05-14T11:59:43.698Z,43.81
2023-05-14T12:02:15.236Z,44.13
2023-05-14T12:05:00.749Z,44.45
2023-05-14T12:07:47.016Z,44.63
2023-05-14T12:10:14.089Z,43.95
2023-05-14T12:12:40.858Z,43.74
2023-05-14T12:15:12.578Z,44.15
2023-05-14T12:17:40.150Z,44.04
2023-05-14T12:20:11.349Z,44.17
2023-05-14T12:22:38.882Z,44.40
2023-05-14T12:25:12.508Z,44.15
2023-05-14T12:27:39.368Z,43.74
2023-05-14T12:30:20.543Z,44.44
2023-05-14T12:32:51.982Z,43.83
2023-05-14T12:35:19.284Z,43.89
2023-05-14T12:37:46.345Z,43.95
2023-05-14T12:40:13.301Z,44.63
2023-05-14T12:42:40.240Z,44.67
2023-05-14T12:45:08.855Z,44.60
2023-05-14T12:47:37.325Z,44.06
2023-05-14T12:50:04.904Z,43.97
2023-05-14T12:55:01.684Z,42.85
2023-05-14T12:57:30.020Z,43.43
2023-05-14T12:59:57.579Z,43.57
2023-05-14T13:02:24.297Z,42.98
2023-05-14T13:04:51.272Z,43.04
2023-05-14T13:07:17.976Z,42.84
2023-05-14T13:09:44.724Z,43.51
2023-05-14T13:12:11.489Z,43.33
2023-05-14T13:14:38.213Z,43.60
2023-05-14T13:17:05.682Z,43.45
2023-05-14T13:19:32.658Z,43.53
2023-05-14T13:21:59.736Z,43.97
2023-05-14T13:24:26.512Z,44.65
2023-05-14T13:26:53.240Z,44.78
2023-05-14T13:29:20.075Z,44.36
2023-05-14T13:31:46.873Z,44.38
2023-05-14T13:34:13.738Z,44.25
2023-05-14T13:36:43.964Z,44.45
2023-05-14T13:39:14.175Z,44.69
2023-05-14T13:42:00.147Z,44.08
2023-05-14T13:44:27.255Z,43.79
2023-05-14T13:46:54.503Z,44.07
2023-05-14T13:49:21.482Z,44.18
2023-05-14T13:51:48.249Z,43.94
2023-05-14T13:54:15.067Z,43.46
2023-05-14T13:56:42.057Z,43.71
2023-05-14T13:59:09.035Z,43.83
2023-05-14T14:01:35.782Z,43.40
2023-05-14T14:04:03.468Z,43.64
2023-05-14T14:06:32.966Z,44.44
2023-05-14T14:08:59.687Z,44.61
2023-05-14T14:11:27.003Z,44.34
2023-05-14T14:13:54.091Z,44.28
2023-05-14T14:16:21.034Z,44.44
2023-05-14T14:18:47.854Z,43.60
2023-05-14T14:21:18.570Z,43.00
2023-05-14T14:23:48.678Z,42.53
2023-05-14T14:26:16.078Z,42.82
2023-05-14T14:28:43.144Z,43.13
2023-05-14T14:31:11.719Z,43.21
2023-05-14T14:33:38.584Z,42.32
2023-05-14T14:36:06.227Z,42.25
2023-05-14T14:38:32.979Z,42.53
2023-05-14T14:40:59.765Z,42.03
2023-05-14T14:43:26.536Z,41.89
2023-05-14T14:45:53.325Z,41.48
2023-05-14T14:48:27.968Z,41.48
2023-05-14T14:50:55.912Z,43.03
2023-05-14T14:53:24.388Z,43.88
2023-05-14T14:55:52.364Z,44.15
2023-05-14T14:58:20.809Z,44.49
2023-05-14T15:00:48.473Z,44.29
2023-05-14T15:03:16.051Z,44.51
2023-05-14T15:05:43.085Z,45.00
2023-05-14T15:08:10.218Z,45.15
2023-05-14T15:10:41.425Z,45.03
2023-05-14T15:13:08.906Z,44.67
2023-05-14T15:15:36.380Z,45.06
2023-05-14T15:18:04.613Z,45.04
2023-05-14T15:20:31.431Z,45.79
2023-05-14T15:22:58.276Z,45.52
2023-05-14T15:25:26.380Z,45.66
2023-05-14T15:27:53.368Z,45.50
2023-05-14T15:30:20.769Z,45.87
2023-05-14T15:32:47.631Z,45.94
2023-05-14T15:35:14.613Z,46.17
2023-05-14T15:37:45.816Z,46.51
2023-05-14T15:40:31.198Z,45.88
2023-05-14T15:42:58.099Z,45.81
2023-05-14T15:45:24.968Z,46.62
2023-05-14T15:47:51.742Z,46.58
2023-05-14T15:50:18.909Z,46.17
2023-05-14T15:52:45.950Z,46.28
2023-05-14T15:55:12.892Z,46.17
2023-05-14T15:57:39.743Z,46.27
2023-05-14T16:00:11.293Z,46.47
2023-05-14T16:02:39.373Z,46.61
2023-05-14T16:05:07.481Z,46.67
2023-05-14T16:07:34.509Z,46.08
2023-05-14T16:10:01.259Z,46.30
2023-05-14T16:12:28.118Z,46.31
2023-05-14T16:14:55.094Z,46.37
2023-05-14T16:17:24.938Z,46.45
2023-05-14T16:19:53.402Z,46.25
2023-05-14T16:22:21.554Z,46.44
2023-05-14T16:24:48.338Z,46.46
2023-05-14T16:27:15.135Z,46.48
2023-05-14T16:29:42.161Z,46.50
2023-05-14T16:32:09.348Z,46.25
2023-05-14T16:34:36.500Z,46.82
2023-05-14T16:37:03.914Z,46.28
2023-05-14T16:39:30.650Z,46.53
2023-05-14T16:41:57.478Z,46.94
2023-05-14T16:44:24.234Z,46.59
2023-05-14T16:46:52.489Z,46.55
2023-05-14T16:49:22.590Z,46.99
2023-05-14T16:51:49.364Z,46.72
2023-05-14T16:54:16.423Z,46.66
2023-05-14T16:56:48.336Z,46.88
2023-05-14T16:59:16.297Z,46.88
2023-05-14T17:01:44.402Z,46.57
2023-05-14T17:04:11.475Z,47.05
2023-05-14T17:06:38.281Z,46.57
2023-05-14T17:09:05.406Z,46.59
2023-05-14T17:11:32.150Z,47.18
2023-05-14T17:13:58.987Z,46.94
2023-05-14T17:16:26.269Z,46.52
2023-05-14T17:18:53.088Z,47.18
2023-05-14T17:21:19.864Z,46.95
2023-05-14T17:23:46.718Z,46.85
2023-05-14T17:26:13.510Z,46.87
2023-05-14T17:28:40.316Z,46.87
2023-05-14T17:31:09.895Z,46.89
2023-05-14T17:33:36.774Z,47.05
2023-05-14T17:36:03.829Z,46.72
2023-05-14T17:38:30.623Z,46.88
2023-05-14T17:40:57.596Z,46.46
2023-05-14T17:43:25.384Z,46.63
2023-05-14T17:45:54.300Z,47.03
2023-05-14T17:48:23.263Z,47.08
2023-05-14T17:50:51.803Z,46.65
2023-05-14T17:53:18.649Z,46.77
2023-05-14T17:55:45.714Z,46.89
2023-05-14T17:58:15.550Z,46.87
2023-05-14T18:00:42.672Z,46.93
2023-05-14T18:03:10.507Z,47.05
2023-05-14T18:05:37.393Z,47.26
2023-05-14T18:08:04.360Z,46.98
2023-05-14T18:10:31.181Z,47.27
2023-05-14T18:12:57.933Z,46.99
2023-05-14T18:15:26.012Z,46.94
2023-05-14T18:17:53.260Z,46.79
2023-05-14T18:20:20.415Z,47.17
2023-05-14T18:22:47.132Z,46.94
2023-05-14T18:25:13.943Z,46.95
2023-05-14T18:27:45.119Z,47.40
2023-05-14T18:30:13.970Z,46.52
2023-05-14T18:32:42.280Z,46.88
2023-05-14T18:35:09.609Z,46.85
2023-05-14T18:37:36.771Z,46.72
2023-05-14T18:40:04.854Z,46.99
2023-05-14T18:42:31.878Z,46.49
2023-05-14T18:44:58.648Z,47.21
2023-05-14T18:47:26.489Z,46.95
2023-05-14T18:49:55.987Z,46.59
2023-05-14T18:52:23.185Z,46.43
2023-05-14T18:54:50.965Z,46.96
2023-05-14T18:57:17.700Z,47.18
2023-05-14T18:59:44.432Z,47.00
2023-05-14T19:02:11.246Z,46.80
2023-05-14T19:04:50.751Z,46.43
2023-05-14T19:07:18.469Z,47.25
2023-05-14T19:09:45.196Z,47.10
2023-05-14T19:12:12.022Z,46.84
2023-05-14T19:14:38.732Z,47.06
2023-05-14T19:17:05.971Z,46.62
2023-05-14T19:19:33.027Z,46.65
2023-05-14T19:21:59.729Z,47.16
2023-05-14T19:24:26.525Z,47.09
2023-05-14T19:26:53.353Z,47.22
2023-05-14T19:29:20.071Z,46.51
2023-05-14T19:31:47.368Z,47.09
2023-05-14T19:34:14.393Z,46.54
2023-05-14T19:36:42.002Z,46.61
2023-05-14T19:39:08.862Z,46.61
2023-05-14T19:41:35.629Z,46.91
2023-05-14T19:44:02.462Z,46.84
2023-05-14T19:46:29.244Z,47.33
2023-05-14T19:48:55.983Z,47.33
2023-05-14T19:51:22.640Z,46.78
2023-05-14T19:53:49.630Z,47.14
2023-05-14T19:56:16.359Z,46.94
2023-05-14T19:58:44.422Z,46.56
2023-05-14T20:01:12.295Z,47.09
2023-05-14T20:03:39.486Z,47.47
2023-05-14T20:06:07.406Z,47.40
2023-05-14T20:08:34.170Z,47.18
2023-05-14T20:11:01.116Z,47.17
2023-05-14T20:13:33.402Z,47.13
2023-05-14T20:16:00.681Z,47.24
2023-05-14T20:18:27.627Z,46.87
2023-05-14T20:20:54.894Z,46.95
2023-05-14T20:23:21.658Z,47.16
2023-05-14T20:25:48.466Z,47.17
2023-05-14T20:28:15.399Z,47.64
2023-05-14T20:30:42.744Z,47.06
2023-05-14T20:33:10.058Z,47.57
2023-05-14T20:35:36.934Z,47.19
2023-05-14T20:38:03.928Z,47.38
2023-05-14T20:40:32.886Z,47.57
2023-05-14T20:42:59.760Z,46.97
2023-05-14T20:45:26.716Z,47.24
2023-05-14T20:47:53.902Z,46.91
2023-05-14T20:50:21.748Z,47.37
2023-05-14T20:52:48.618Z,47.58
2023-05-14T20:55:15.444Z,47.29
2023-05-14T20:57:43.613Z,47.13
2023-05-14T21:00:11.299Z,47.36
2023-05-14T21:02:38.154Z,47.42
2023-05-14T21:05:05.682Z,47.57
2023-05-14T21:07:32.528Z,47.21
2023-05-14T21:09:59.582Z,46.77
2023-05-14T21:12:26.362Z,47.31
2023-05-14T21:14:53.173Z,47.13
2023-05-14T21:17:19.948Z,47.21
2023-05-14T21:19:46.662Z,47.32
2023-05-14T21:22:13.702Z,46.99
2023-05-14T21:24:40.440Z,47.15
2023-05-14T21:27:07.161Z,47.18
2023-05-14T21:29:33.968Z,47.10
2023-05-14T21:32:00.847Z,47.54
2023-05-14T21:34:28.673Z,47.17
2023-05-14T21:36:56.465Z,46.73
2023-05-14T21:39:23.215Z,47.12
2023-05-14T21:41:50.007Z,47.33
2023-05-14T21:44:16.804Z,47.20
2023-05-14T21:46:43.768Z,47.42
2023-05-14T21:49:10.472Z,47.22
2023-05-14T21:51:37.270Z,46.90
2023-05-14T21:54:04.180Z,47.15
2023-05-14T21:56:31.110Z,46.83
2023-05-14T21:58:57.959Z,46.99
2023-05-14T22:01:24.763Z,47.09
2023-05-14T22:03:51.636Z,47.30
2023-05-14T22:06:18.466Z,47.09
2023-05-14T22:08:45.166Z,47.10
2023-05-14T22:11:11.922Z,47.49
2023-05-14T22:13:41.156Z,47.05
2023-05-14T22:16:13.813Z,47.17
2023-05-14T22:18:42.102Z,47.50
2023-05-14T22:21:09.212Z,47.59
2023-05-14T22:23:36.332Z,47.48
2023-05-14T22:26:03.292Z,46.89
2023-05-14T22:28:30.112Z,47.18
2023-05-14T22:30:59.866Z,47.13
2023-05-14T22:33:26.741Z,47.12
2023-05-14T22:35:53.501Z,47.46
2023-05-14T22:38:20.568Z,47.17
2023-05-14T22:40:47.363Z,46.85
2023-05-14T22:43:14.570Z,47.37
2023-05-14T22:45:41.359Z,47.21
2023-05-14T22:48:08.231Z,47.08
2023-05-14T22:50:34.949Z,47.23
2023-05-14T22:53:01.655Z,47.22
2023-05-14T22:55:28.565Z,46.98
2023-05-14T22:57:56.305Z,47.20
2023-05-14T23:00:23.150Z,46.84
2023-05-14T23:02:49.956Z,47.08
2023-05-14T23:05:16.835Z,47.15
2023-05-14T23:07:43.883Z,47.42
2023-05-14T23:10:11.580Z,47.60
2023-05-14T23:12:38.366Z,47.20
2023-05-14T23:15:05.628Z,47.50
2023-05-14T23:17:32.595Z,47.00
2023-05-14T23:19:59.312Z,47.22
2023-05-14T23:22:26.021Z,47.16
2023-05-14T23:24:52.717Z,47.30
2023-05-14T23:27:19.463Z,47.06
2023-05-14T23:29:46.153Z,46.87
2023-05-14T23:32:13.163Z,47.04
2023-05-14T23:34:39.946Z,46.79
2023-05-14T23:37:06.740Z,47.59
2023-05-14T23:39:33.622Z,47.26
2023-05-14T23:42:00.317Z,46.96
2023-05-14T23:44:27.175Z,47.21
2023-05-14T23:46:54.034Z,47.16
2023-05-14T23:49:20.924Z,47.51
2023-05-14T23:51:47.653Z,47.08
2023-05-14T23:54:14.523Z,47.19
2023-05-14T23:56:41.272Z,47.09
2023-05-14T23:59:08.088Z,47.17
